Weather at Memorial Field Airport

Public forecast

Using degrees Fahrenheit for public forecast. Weather courtesy of forecast.io.

Current aviation weather report (METAR) for Memorial Field Airport

Report is more than 6 hours old.

Retrieved 2022/09/17 18:53 UTC (18 days ago):

KHOT 171853Z AUTO 17007KT 10SM SCT046 31/19 A3004 RMK AO2 SLP165 T03060189

Aviation forecast (TAF) for Memorial Field Airport

Forecast is more than 12 hours old.

Retrieved 2022/09/17 18:22 UTC (18 days ago):

TAF KHOT 171720Z 1718/1818 19007KT P6SM SCT060 FM180000 VRB03KT P6SM SCT250